Time;durP1;ratioP1;P1;durP2;ratioP2;P2;SDS_P1;SDS_P2;PMS_P1;PMS_P2;Temp;Humidity;BMP_temperature;BMP_pressure;BME280_temperature;BME280_humidity;BME280_pressure;Samples;Min_cycle;Max_cycle;Signal;HPM_P1;HPM_P2
2022/07/04 00:00:08;;;;;;;;;;;;;;;;;;348845;28;995;-72
2022/07/04 00:00:19;;;;;;;;;;;;;;;;;;348807;28;972;-72
2022/07/04 00:00:29;;;;;;;;;;;;;;;;;;348779;28;1016;-72
2022/07/04 00:00:39;;;;;;;;;;;;;;;;;;348787;28;913;-73
2022/07/04 00:00:49;;;;;;;;;;;;;;;;;;348805;28;1062;-72
2022/07/04 00:00:59;;;;;;;;;;;;;;;;;;348800;28;972;-72
2022/07/04 00:01:10;;;;;;;;;;;;;;;;;;348751;28;1020;-72
2022/07/04 00:01:20;;;;;;;;;;;;;;;;;;348781;28;1076;-72
2022/07/04 00:01:30;;;;;;;;;;;;;;;;;;348217;28;1372;-72
2022/07/04 00:01:40;;;;;;;;;;;;;;;;;;349207;28;1759;-72
2022/07/04 00:01:51;;;;;;;;;;;;;;;;;;350219;28;1015;-72
2022/07/04 00:02:01;;;;;;;;;;;;;;;;;;350232;28;901;-72
2022/07/04 00:02:11;;;;;;;;;;;;;;;;;;350200;28;975;-72
2022/07/04 00:02:21;;;;;;;;;;;;;;;;;;350153;28;945;-72
2022/07/04 00:02:32;;;;;;;;;;;;;;;;;;350157;28;957;-72
2022/07/04 00:02:43;;;;;;;;;;;;;;;;;;350174;28;975;-72
2022/07/04 00:02:53;;;;;;;;;;;;;;;;;;350149;28;1067;-72
2022/07/04 00:03:05;;;;;;;;;;;;;;;;;;350204;28;976;-72
2022/07/04 00:03:15;;;;;;;;;;;;;;;;;;350166;28;944;-72
2022/07/04 00:03:25;;;;;;;;;;;;;;;;;;350195;28;856;-72
2022/07/04 00:03:36;;;;;;;;;;;;;;;;;;350214;28;1015;-72
2022/07/04 00:03:46;;;;;;;;;;;;;;;;;;350194;28;849;-72
2022/07/04 00:03:57;;;;;;;;;;;;;;;;;;350214;28;1017;-72
2022/07/04 00:04:07;;;;;;;;;;;;;;;;;;350215;28;952;-72
2022/07/04 00:04:17;;;;;;;;;;;;;;;;;;350095;28;1100;-72
2022/07/04 00:04:27;;;;;;;;;;;;;;;;;;350140;28;972;-72
2022/07/04 00:04:37;;;;;;;;;;;;;;;;;;350189;28;928;-72
2022/07/04 00:04:48;;;;;;;;;;;;;;;;;;350242;28;781;-72
2022/07/04 00:04:58;;;;;;;;;;;;;;;;;;350173;28;929;-72
2022/07/04 00:05:10;;;;;;;;;;;;;;;;;;350177;28;1074;-72
2022/07/04 00:05:21;;;;;;;;;;;;;;;;;;350152;28;912;-72
2022/07/04 00:05:31;;;;;;;;;;;;;;;;;;350248;28;880;-72
2022/07/04 00:05:42;;;;;;;;;;;;;;;;;;350135;28;1189;-72
2022/07/04 00:05:52;;;;;;;;;;;;;;;;;;350208;28;894;-72
2022/07/04 00:06:02;;;;;;;;;;;;;;;;;;350221;28;929;-72
2022/07/04 00:06:12;;;;;;;;;;;;;;;;;;350216;28;790;-73
2022/07/04 00:06:23;;;;;;;;;;;;;;;;;;350187;28;905;-72
2022/07/04 00:06:33;;;;;;;;;;;;;;;;;;350178;28;920;-73
2022/07/04 00:06:43;;;;;;;;;;;;;;;;;;350208;28;1004;-72
2022/07/04 00:06:53;;;;;;;;;;;;;;;;;;350208;28;861;-72
2022/07/04 00:07:03;;;;;;;;;;;;;;;;;;350208;28;944;-72
2022/07/04 00:07:14;;;;;;;;;;;;;;;;;;350201;28;975;-72
2022/07/04 00:07:24;;;;;;;;;;;;;;;;;;350109;28;924;-72
2022/07/04 00:07:34;;;;;;;;;;;;;;;;;;350133;28;1265;-72
2022/07/04 00:07:45;;;;;;;;;;;;;;;;;;350219;28;858;-72
2022/07/04 00:07:56;;;;;;;;;;;;;;;;;;350226;28;901;-72
2022/07/04 00:08:06;;;;;;;;;;;;;;;;;;350168;28;1067;-72
2022/07/04 00:08:16;;;;;;;;;;;;;;;;;;350128;28;1008;-72
2022/07/04 00:08:26;;;;;;;;;;;;;;;;;;350073;28;1018;-72
2022/07/04 00:08:36;;;;;;;;;;;;;;;;;;350166;28;809;-72
2022/07/04 00:08:47;;;;;;;;;;;;;;;;;;350184;28;881;-72
2022/07/04 00:08:57;;;;;;;;;;;;;;;;;;350195;28;837;-72
2022/07/04 00:09:07;;;;;;;;;;;;;;;;;;350136;28;909;-72
2022/07/04 00:09:17;;;;;;;;;;;;;;;;;;350166;28;770;-72
2022/07/04 00:09:27;;;;;;;;;;;;;;;;;;350125;28;994;-72
2022/07/04 00:09:38;;;;;;;;;;;;;;;;;;350147;28;782;-72
2022/07/04 00:09:48;;;;;;;;;;;;;;;;;;350113;28;1007;-72
2022/07/04 00:09:58;;;;;;;;;;;;;;;;;;350157;28;892;-72
2022/07/04 00:10:09;;;;;;;;;;;;;;;;;;350150;28;995;-72
2022/07/04 00:10:23;;;;;;;;;;;;;;;;;;350221;28;917;-72
2022/07/04 00:10:33;;;;;;;;;;;;;;;;;;350199;28;834;-72
2022/07/04 00:10:43;;;;;;;;;;;;;;;;;;350199;28;928;-72
2022/07/04 00:10:53;;;;;;;;;;;;;;;;;;350141;28;960;-72
2022/07/04 00:11:03;;;;;;;;;;;;;;;;;;350214;28;869;-72
2022/07/04 00:11:14;;;;;;;;;;;;;;;;;;350171;28;905;-72
2022/07/04 00:11:24;;;;;;;;;;;;;;;;;;350193;28;777;-72
2022/07/04 00:11:34;;;;;;;;;;;;;;;;;;350096;28;964;-72
2022/07/04 00:11:44;;;;;;;;;;;;;;;;;;350128;28;917;-72
2022/07/04 00:11:54;;;;;;;;;;;;;;;;;;350186;28;1077;-72
2022/07/04 00:12:05;;;;;;;;;;;;;;;;;;350104;28;1011;-72
2022/07/04 00:12:15;;;;;;;;;;;;;;;;;;350214;28;908;-72
2022/07/04 00:12:25;;;;;;;;;;;;;;;;;;350126;28;905;-72
2022/07/04 00:12:36;;;;;;;;;;;;;;;;;;350168;28;926;-72
2022/07/04 00:12:46;;;;;;;;;;;;;;;;;;350173;28;1091;-72
2022/07/04 00:12:56;;;;;;;;;;;;;;;;;;350128;28;976;-72
2022/07/04 00:13:07;;;;;;;;;;;;;;;;;;350171;28;896;-72
2022/07/04 00:13:17;;;;;;;;;;;;;;;;;;350179;28;959;-72
2022/07/04 00:13:27;;;;;;;;;;;;;;;;;;350187;28;909;-72
2022/07/04 00:13:37;;;;;;;;;;;;;;;;;;350052;28;1053;-72
2022/07/04 00:13:48;;;;;;;;;;;;;;;;;;350170;28;924;-72
2022/07/04 00:13:58;;;;;;;;;;;;;;;;;;350155;28;1180;-72
2022/07/04 00:14:08;;;;;;;;;;;;;;;;;;350183;28;999;-72
2022/07/04 00:14:18;;;;;;;;;;;;;;;;;;350209;28;865;-72
2022/07/04 00:14:29;;;;;;;;;;;;;;;;;;350081;28;1975;-72
2022/07/04 00:14:39;;;;;;;;;;;;;;;;;;350099;28;952;-72
2022/07/04 00:14:49;;;;;;;;;;;;;;;;;;350174;28;968;-72
2022/07/04 00:15:00;;;;;;;;;;;;;;;;;;350203;28;980;-72
2022/07/04 00:15:11;;;;;;;;;;;;;;;;;;350161;28;987;-72
2022/07/04 00:15:21;;;;;;;;;;;;;;;;;;350180;28;995;-72
2022/07/04 00:15:31;;;;;;;;;;;;;;;;;;350191;28;893;-72
2022/07/04 00:15:41;;;;;;;;;;;;;;;;;;350048;28;925;-72
2022/07/04 00:15:52;;;;;;;;;;;;;;;;;;350176;28;936;-72
2022/07/04 00:16:02;;;;;;;;;;;;;;;;;;350245;28;960;-72
2022/07/04 00:16:12;;;;;;;;;;;;;;;;;;350124;28;933;-72
2022/07/04 00:16:22;;;;;;;;;;;;;;;;;;349080;28;1382;-72
2022/07/04 00:16:34;;;;;;;;;;;;;;;;;;350193;28;945;-72
2022/07/04 00:16:44;;;;;;;;;;;;;;;;;;350119;28;861;-72
2022/07/04 00:16:54;;;;;;;;;;;;;;;;;;350194;28;889;-72
2022/07/04 00:17:05;;;;;;;;;;;;;;;;;;350161;28;948;-72
2022/07/04 00:17:15;;;;;;;;;;;;;;;;;;350088;28;1056;-72
2022/07/04 00:17:25;;;;;;;;;;;;;;;;;;350190;28;920;-72
2022/07/04 00:17:36;;;;;;;;;;;;;;;;;;350200;28;909;-72
2022/07/04 00:17:46;;;;;;;;;;;;;;;;;;350092;28;908;-72
2022/07/04 00:17:56;;;;;;;;;;;;;;;;;;350140;28;885;-72
2022/07/04 00:18:06;;;;;;;;;;;;;;;;;;350183;28;968;-72
2022/07/04 00:18:17;;;;;;;;;;;;;;;;;;350175;28;841;-73
2022/07/04 00:18:27;;;;;;;;;;;;;;;;;;350174;28;984;-72
2022/07/04 00:18:39;;;;;;;;;;;;;;;;;;350071;28;1171;-72
2022/07/04 00:18:49;;;;;;;;;;;;;;;;;;350116;28;881;-72
2022/07/04 00:18:59;;;;;;;;;;;;;;;;;;350161;28;770;-72
2022/07/04 00:19:09;;;;;;;;;;;;;;;;;;350168;28;956;-72
2022/07/04 00:19:20;;;;;;;;;;;;;;;;;;350132;28;1044;-72
2022/07/04 00:19:30;;;;;;;;;;;;;;;;;;350168;28;956;-72
2022/07/04 00:19:40;;;;;;;;;;;;;;;;;;350154;28;1216;-72
2022/07/04 00:19:50;;;;;;;;;;;;;;;;;;350101;28;916;-72
2022/07/04 00:20:01;;;;;;;;;;;;;;;;;;350155;28;787;-72
2022/07/04 00:20:11;;;;;;;;;;;;;;;;;;350162;28;944;-72
2022/07/04 00:20:21;;;;;;;;;;;;;;;;;;350130;28;865;-72
2022/07/04 00:20:32;;;;;;;;;;;;;;;;;;350146;28;980;-72
2022/07/04 00:20:42;;;;;;;;;;;;;;;;;;350219;28;837;-72
2022/07/04 00:20:53;;;;;;;;;;;;;;;;;;350154;28;976;-72
2022/07/04 00:21:03;;;;;;;;;;;;;;;;;;350218;28;881;-72
2022/07/04 00:21:13;;;;;;;;;;;;;;;;;;350199;28;901;-72
2022/07/04 00:21:24;;;;;;;;;;;;;;;;;;350176;28;896;-72
2022/07/04 00:21:34;;;;;;;;;;;;;;;;;;350190;28;960;-72
2022/07/04 00:21:45;;;;;;;;;;;;;;;;;;350195;28;928;-72
2022/07/04 00:21:55;;;;;;;;;;;;;;;;;;350103;28;892;-72
2022/07/04 00:22:06;;;;;;;;;;;;;;;;;;350140;28;1337;-72
2022/07/04 00:22:16;;;;;;;;;;;;;;;;;;350199;28;850;-72
2022/07/04 00:22:26;;;;;;;;;;;;;;;;;;350201;28;987;-72
2022/07/04 00:22:36;;;;;;;;;;;;;;;;;;350073;28;983;-72
2022/07/04 00:22:47;;;;;;;;;;;;;;;;;;350139;28;858;-72
2022/07/04 00:22:57;;;;;;;;;;;;;;;;;;350209;28;925;-72
2022/07/04 00:23:07;;;;;;;;;;;;;;;;;;350144;28;917;-72
2022/07/04 00:23:17;;;;;;;;;;;;;;;;;;350142;28;929;-72
2022/07/04 00:23:27;;;;;;;;;;;;;;;;;;350150;28;996;-72
2022/07/04 00:23:38;;;;;;;;;;;;;;;;;;350187;28;921;-72
2022/07/04 00:23:48;;;;;;;;;;;;;;;;;;350168;28;940;-72
2022/07/04 00:23:59;;;;;;;;;;;;;;;;;;350153;28;924;-72
2022/07/04 00:24:09;;;;;;;;;;;;;;;;;;349534;28;1438;-72
2022/07/04 00:24:19;;;;;;;;;;;;;;;;;;349737;28;1506;-72
2022/07/04 00:24:29;;;;;;;;;;;;;;;;;;350212;28;929;-72
2022/07/04 00:24:39;;;;;;;;;;;;;;;;;;350139;28;877;-72
2022/07/04 00:24:50;;;;;;;;;;;;;;;;;;350145;28;995;-72
2022/07/04 00:25:00;;;;;;;;;;;;;;;;;;350165;28;939;-72
2022/07/04 00:25:10;;;;;;;;;;;;;;;;;;350184;28;943;-72
2022/07/04 00:25:21;;;;;;;;;;;;;;;;;;350089;28;948;-73
2022/07/04 00:25:31;;;;;;;;;;;;;;;;;;350197;28;913;-72
2022/07/04 00:25:41;;;;;;;;;;;;;;;;;;350168;28;991;-72
2022/07/04 00:25:51;;;;;;;;;;;;;;;;;;350141;28;977;-72
2022/07/04 00:26:02;;;;;;;;;;;;;;;;;;350155;28;916;-72
2022/07/04 00:26:12;;;;;;;;;;;;;;;;;;350117;28;948;-72
2022/07/04 00:26:22;;;;;;;;;;;;;;;;;;350202;28;846;-72
2022/07/04 00:26:32;;;;;;;;;;;;;;;;;;350141;28;921;-72
2022/07/04 00:26:43;;;;;;;;;;;;;;;;;;350131;28;977;-72
2022/07/04 00:26:53;;;;;;;;;;;;;;;;;;350142;28;817;-72
2022/07/04 00:27:03;;;;;;;;;;;;;;;;;;350193;28;892;-73
2022/07/04 00:27:13;;;;;;;;;;;;;;;;;;350093;28;1096;-72
2022/07/04 00:27:24;;;;;;;;;;;;;;;;;;350139;28;1067;-72
2022/07/04 00:27:34;;;;;;;;;;;;;;;;;;350094;28;1043;-72
2022/07/04 00:27:44;;;;;;;;;;;;;;;;;;350182;28;925;-72
2022/07/04 00:27:54;;;;;;;;;;;;;;;;;;350182;28;937;-72
2022/07/04 00:28:05;;;;;;;;;;;;;;;;;;350159;28;1426;-72
2022/07/04 00:28:15;;;;;;;;;;;;;;;;;;350116;28;779;-72
2022/07/04 00:28:25;;;;;;;;;;;;;;;;;;350121;28;902;-72
2022/07/04 00:28:35;;;;;;;;;;;;;;;;;;350169;28;952;-72
2022/07/04 00:28:45;;;;;;;;;;;;;;;;;;350168;28;972;-72
2022/07/04 00:28:56;;;;;;;;;;;;;;;;;;350154;28;830;-72
2022/07/04 00:29:06;;;;;;;;;;;;;;;;;;350197;28;932;-72
2022/07/04 00:29:16;;;;;;;;;;;;;;;;;;350094;28;941;-72
2022/07/04 00:29:27;;;;;;;;;;;;;;;;;;350191;28;956;-72
2022/07/04 00:29:37;;;;;;;;;;;;;;;;;;350171;28;850;-72
2022/07/04 00:29:47;;;;;;;;;;;;;;;;;;350152;28;802;-72
2022/07/04 00:29:57;;;;;;;;;;;;;;;;;;350151;28;916;-72
2022/07/04 00:30:08;;;;;;;;;;;;;;;;;;350123;28;1024;-72
2022/07/04 00:30:18;;;;;;;;;;;;;;;;;;350129;28;865;-72
2022/07/04 00:30:28;;;;;;;;;;;;;;;;;;350156;28;913;-72
2022/07/04 00:30:38;;;;;;;;;;;;;;;;;;350115;28;1083;-72
2022/07/04 00:30:49;;;;;;;;;;;;;;;;;;350203;28;786;-72
2022/07/04 00:30:59;;;;;;;;;;;;;;;;;;350073;28;960;-72
2022/07/04 00:31:09;;;;;;;;;;;;;;;;;;350115;28;1159;-72
2022/07/04 00:31:19;;;;;;;;;;;;;;;;;;350151;28;995;-72
2022/07/04 00:31:30;;;;;;;;;;;;;;;;;;350157;28;952;-72
2022/07/04 00:31:40;;;;;;;;;;;;;;;;;;350150;28;803;-72
2022/07/04 00:31:50;;;;;;;;;;;;;;;;;;350106;28;929;-72
2022/07/04 00:32:02;;;;;;;;;;;;;;;;;;350105;28;953;-72
2022/07/04 00:32:12;;;;;;;;;;;;;;;;;;350081;28;1196;-72
2022/07/04 00:32:22;;;;;;;;;;;;;;;;;;350078;28;766;-72
2022/07/04 00:32:32;;;;;;;;;;;;;;;;;;350145;28;960;-72
2022/07/04 00:32:42;;;;;;;;;;;;;;;;;;350076;28;1038;-72
2022/07/04 00:32:53;;;;;;;;;;;;;;;;;;350184;28;979;-72
2022/07/04 00:33:03;;;;;;;;;;;;;;;;;;350192;28;837;-72
2022/07/04 00:33:13;;;;;;;;;;;;;;;;;;350114;28;913;-72
2022/07/04 00:33:24;;;;;;;;;;;;;;;;;;350142;28;961;-72
2022/07/04 00:33:34;;;;;;;;;;;;;;;;;;350168;28;963;-72
2022/07/04 00:33:44;;;;;;;;;;;;;;;;;;350150;28;932;-72
2022/07/04 00:33:54;;;;;;;;;;;;;;;;;;350177;28;920;-72
2022/07/04 00:34:05;;;;;;;;;;;;;;;;;;350126;28;964;-72
2022/07/04 00:34:15;;;;;;;;;;;;;;;;;;350090;28;1019;-72
2022/07/04 00:34:25;;;;;;;;;;;;;;;;;;350021;28;1965;-72
2022/07/04 00:34:36;;;;;;;;;;;;;;;;;;350137;28;956;-73
2022/07/04 00:34:46;;;;;;;;;;;;;;;;;;350075;28;1300;-72
2022/07/04 00:34:57;;;;;;;;;;;;;;;;;;350154;28;924;-72
2022/07/04 00:35:08;;;;;;;;;;;;;;;;;;350082;28;1071;-72
2022/07/04 00:35:18;;;;;;;;;;;;;;;;;;350123;28;941;-72
2022/07/04 00:35:28;;;;;;;;;;;;;;;;;;350146;28;905;-72
2022/07/04 00:35:39;;;;;;;;;;;;;;;;;;350163;28;1232;-72
2022/07/04 00:35:49;;;;;;;;;;;;;;;;;;350124;28;995;-73
2022/07/04 00:35:59;;;;;;;;;;;;;;;;;;350139;28;932;-72
2022/07/04 00:36:09;;;;;;;;;;;;;;;;;;350076;28;1036;-72
2022/07/04 00:36:19;;;;;;;;;;;;;;;;;;350120;28;1000;-72
2022/07/04 00:36:30;;;;;;;;;;;;;;;;;;350150;28;878;-72
2022/07/04 00:36:40;;;;;;;;;;;;;;;;;;350138;28;929;-72
2022/07/04 00:36:50;;;;;;;;;;;;;;;;;;350147;28;854;-72
2022/07/04 00:37:00;;;;;;;;;;;;;;;;;;350153;28;991;-72
2022/07/04 00:37:10;;;;;;;;;;;;;;;;;;350115;28;881;-72
2022/07/04 00:37:21;;;;;;;;;;;;;;;;;;350123;28;1071;-72
2022/07/04 00:37:31;;;;;;;;;;;;;;;;;;350099;28;913;-72
2022/07/04 00:37:41;;;;;;;;;;;;;;;;;;350159;28;983;-72
2022/07/04 00:37:51;;;;;;;;;;;;;;;;;;350184;28;976;-72
2022/07/04 00:38:01;;;;;;;;;;;;;;;;;;350098;28;887;-72
2022/07/04 00:38:12;;;;;;;;;;;;;;;;;;350085;28;908;-72
2022/07/04 00:38:22;;;;;;;;;;;;;;;;;;350164;28;936;-72
2022/07/04 00:38:32;;;;;;;;;;;;;;;;;;350113;28;1008;-72
2022/07/04 00:38:42;;;;;;;;;;;;;;;;;;350134;28;941;-72
2022/07/04 00:38:53;;;;;;;;;;;;;;;;;;350104;28;853;-72
2022/07/04 00:39:03;;;;;;;;;;;;;;;;;;349473;28;1445;-72
2022/07/04 00:39:13;;;;;;;;;;;;;;;;;;350149;28;801;-72
2022/07/04 00:39:24;;;;;;;;;;;;;;;;;;350159;28;1004;-72
2022/07/04 00:39:34;;;;;;;;;;;;;;;;;;350117;28;930;-72
2022/07/04 00:39:44;;;;;;;;;;;;;;;;;;350156;28;857;-72
2022/07/04 00:39:55;;;;;;;;;;;;;;;;;;350196;28;908;-72
2022/07/04 00:40:05;;;;;;;;;;;;;;;;;;350171;28;991;-72
2022/07/04 00:40:16;;;;;;;;;;;;;;;;;;350119;28;879;-72
2022/07/04 00:40:26;;;;;;;;;;;;;;;;;;350141;28;936;-72
2022/07/04 00:40:37;;;;;;;;;;;;;;;;;;349148;28;1415;-72
2022/07/04 00:40:48;;;;;;;;;;;;;;;;;;348707;28;909;-72
2022/07/04 00:40:58;;;;;;;;;;;;;;;;;;348702;28;925;-72
2022/07/04 00:41:08;;;;;;;;;;;;;;;;;;348749;28;1136;-72
2022/07/04 00:41:18;;;;;;;;;;;;;;;;;;349277;28;1308;-72
2022/07/04 00:41:29;;;;;;;;;;;;;;;;;;350202;28;790;-72
2022/07/04 00:41:39;;;;;;;;;;;;;;;;;;350133;28;937;-72
2022/07/04 00:41:49;;;;;;;;;;;;;;;;;;350142;28;1008;-72
2022/07/04 00:41:59;;;;;;;;;;;;;;;;;;350162;28;984;-72
2022/07/04 00:42:10;;;;;;;;;;;;;;;;;;350122;28;1005;-72
2022/07/04 00:42:20;;;;;;;;;;;;;;;;;;350179;28;841;-72
2022/07/04 00:42:30;;;;;;;;;;;;;;;;;;350101;28;1008;-73
2022/07/04 00:42:41;;;;;;;;;;;;;;;;;;350152;28;964;-72
2022/07/04 00:42:51;;;;;;;;;;;;;;;;;;350142;28;798;-72
2022/07/04 00:43:02;;;;;;;;;;;;;;;;;;350151;28;980;-72
2022/07/04 00:43:12;;;;;;;;;;;;;;;;;;350143;28;1026;-72
2022/07/04 00:43:26;;;;;;;;;;;;;;;;;;350090;28;888;-72
2022/07/04 00:43:36;;;;;;;;;;;;;;;;;;350177;28;959;-72
2022/07/04 00:44:07;;;;;;;;;;;;;;;;;;350185;28;762;-72
2022/07/04 00:44:17;;;;;;;;;;;;;;;;;;350093;28;941;-72
2022/07/04 00:44:27;;;;;;;;;;;;;;;;;;350137;28;852;-72
2022/07/04 00:44:38;;;;;;;;;;;;;;;;;;350195;28;856;-72
2022/07/04 00:44:48;;;;;;;;;;;;;;;;;;350154;28;1068;-72
2022/07/04 00:44:58;;;;;;;;;;;;;;;;;;350075;28;988;-72
2022/07/04 00:45:09;;;;;;;;;;;;;;;;;;350106;28;912;-72
2022/07/04 00:45:20;;;;;;;;;;;;;;;;;;350143;28;960;-72
2022/07/04 00:45:30;;;;;;;;;;;;;;;;;;350187;28;988;-72
2022/07/04 00:45:40;;;;;;;;;;;;;;;;;;350155;28;774;-72
2022/07/04 00:45:50;;;;;;;;;;;;;;;;;;350104;28;973;-72
2022/07/04 00:46:03;;;;;;;;;;;;;;;;;;350088;28;928;-72
2022/07/04 00:46:13;;;;;;;;;;;;;;;;;;350129;28;928;-72
2022/07/04 00:46:23;;;;;;;;;;;;;;;;;;350126;28;833;-72
2022/07/04 00:46:34;;;;;;;;;;;;;;;;;;350160;28;913;-72
2022/07/04 00:46:45;;;;;;;;;;;;;;;;;;350031;28;956;-72
2022/07/04 00:46:55;;;;;;;;;;;;;;;;;;350061;28;920;-72
2022/07/04 00:47:06;;;;;;;;;;;;;;;;;;350130;28;964;-72
2022/07/04 00:47:16;;;;;;;;;;;;;;;;;;350097;28;1011;-72
2022/07/04 00:47:26;;;;;;;;;;;;;;;;;;350136;28;916;-72
2022/07/04 00:47:36;;;;;;;;;;;;;;;;;;350128;28;920;-72
2022/07/04 00:47:46;;;;;;;;;;;;;;;;;;350076;28;983;-72
2022/07/04 00:47:57;;;;;;;;;;;;;;;;;;348486;28;1370;-71
2022/07/04 00:48:07;;;;;;;;;;;;;;;;;;348764;28;945;-72
2022/07/04 00:48:18;;;;;;;;;;;;;;;;;;348753;28;841;-72
2022/07/04 00:48:28;;;;;;;;;;;;;;;;;;348718;28;1024;-72
2022/07/04 00:48:38;;;;;;;;;;;;;;;;;;348694;28;921;-72
2022/07/04 00:48:49;;;;;;;;;;;;;;;;;;348755;28;1000;-71
2022/07/04 00:48:59;;;;;;;;;;;;;;;;;;348763;28;798;-72
2022/07/04 00:49:10;;;;;;;;;;;;;;;;;;348747;28;964;-72
2022/07/04 00:49:20;;;;;;;;;;;;;;;;;;348773;28;992;-72
2022/07/04 00:49:30;;;;;;;;;;;;;;;;;;348766;28;901;-72
2022/07/04 00:49:41;;;;;;;;;;;;;;;;;;348753;28;925;-72
2022/07/04 00:49:51;;;;;;;;;;;;;;;;;;348595;28;1709;-71
2022/07/04 00:50:01;;;;;;;;;;;;;;;;;;349994;28;1081;-72
2022/07/04 00:50:11;;;;;;;;;;;;;;;;;;350151;28;837;-72
2022/07/04 00:50:23;;;;;;;;;;;;;;;;;;350059;28;900;-72
2022/07/04 00:50:33;;;;;;;;;;;;;;;;;;350137;28;774;-72
2022/07/04 00:50:44;;;;;;;;;;;;;;;;;;350128;28;913;-72
2022/07/04 00:50:54;;;;;;;;;;;;;;;;;;350119;28;976;-72
2022/07/04 00:51:04;;;;;;;;;;;;;;;;;;350084;28;968;-72
2022/07/04 00:51:14;;;;;;;;;;;;;;;;;;350068;28;928;-72
2022/07/04 00:51:25;;;;;;;;;;;;;;;;;;350077;28;1056;-72
2022/07/04 00:51:39;;;;;;;;;;;;;;;;;;350198;28;987;-72
2022/07/04 00:51:50;;;;;;;;;;;;;;;;;;349327;28;1406;-71
2022/07/04 00:52:00;;;;;;;;;;;;;;;;;;350152;28;920;-72
2022/07/04 00:52:12;;;;;;;;;;;;;;;;;;350087;28;928;-72
2022/07/04 00:52:22;;;;;;;;;;;;;;;;;;350127;28;968;-72
2022/07/04 00:52:33;;;;;;;;;;;;;;;;;;350143;28;944;-72
2022/07/04 00:52:43;;;;;;;;;;;;;;;;;;350076;28;1022;-72
2022/07/04 00:52:54;;;;;;;;;;;;;;;;;;350102;28;920;-72
2022/07/04 00:53:05;;;;;;;;;;;;;;;;;;350123;28;948;-72
2022/07/04 00:53:16;;;;;;;;;;;;;;;;;;350113;28;964;-72
2022/07/04 00:53:27;;;;;;;;;;;;;;;;;;350091;28;898;-72
2022/07/04 00:53:37;;;;;;;;;;;;;;;;;;350126;28;992;-72
2022/07/04 00:53:47;;;;;;;;;;;;;;;;;;350078;28;1032;-72
2022/07/04 00:53:58;;;;;;;;;;;;;;;;;;350123;28;1023;-72
2022/07/04 00:54:09;;;;;;;;;;;;;;;;;;350177;28;984;-72
2022/07/04 00:54:21;;;;;;;;;;;;;;;;;;350046;28;1037;-72
2022/07/04 00:54:32;;;;;;;;;;;;;;;;;;350035;28;1983;-72
2022/07/04 00:54:42;;;;;;;;;;;;;;;;;;350109;28;1024;-72
2022/07/04 00:54:52;;;;;;;;;;;;;;;;;;350127;28;1043;-72
2022/07/04 00:55:03;;;;;;;;;;;;;;;;;;350105;28;960;-72
2022/07/04 00:55:14;;;;;;;;;;;;;;;;;;350146;28;848;-72
2022/07/04 00:55:25;;;;;;;;;;;;;;;;;;350130;28;904;-72
2022/07/04 00:55:35;;;;;;;;;;;;;;;;;;350121;28;1198;-72
2022/07/04 00:55:46;;;;;;;;;;;;;;;;;;350101;28;953;-72
2022/07/04 00:55:56;;;;;;;;;;;;;;;;;;350124;28;901;-72
2022/07/04 00:56:06;;;;;;;;;;;;;;;;;;350161;28;975;-72
2022/07/04 00:56:17;;;;;;;;;;;;;;;;;;350092;28;881;-72
2022/07/04 00:56:27;;;;;;;;;;;;;;;;;;350111;28;956;-72
2022/07/04 00:56:39;;;;;;;;;;;;;;;;;;350108;28;949;-72
2022/07/04 00:56:49;;;;;;;;;;;;;;;;;;350138;28;925;-72
2022/07/04 00:57:00;;;;;;;;;;;;;;;;;;350134;28;972;-72
2022/07/04 00:57:10;;;;;;;;;;;;;;;;;;350147;28;913;-72
2022/07/04 00:57:20;;;;;;;;;;;;;;;;;;350179;28;776;-72
2022/07/04 00:57:30;;;;;;;;;;;;;;;;;;350093;28;979;-72
2022/07/04 00:57:41;;;;;;;;;;;;;;;;;;350118;28;910;-72
2022/07/04 00:57:51;;;;;;;;;;;;;;;;;;350154;28;795;-72
2022/07/04 00:58:01;;;;;;;;;;;;;;;;;;350125;28;912;-72
2022/07/04 00:58:12;;;;;;;;;;;;;;;;;;349329;28;1398;-72
2022/07/04 00:58:22;;;;;;;;;;;;;;;;;;349691;28;1646;-72
2022/07/04 00:58:33;;;;;;;;;;;;;;;;;;350102;28;920;-72
2022/07/04 00:58:43;;;;;;;;;;;;;;;;;;350137;28;929;-72
2022/07/04 00:58:54;;;;;;;;;;;;;;;;;;350045;28;999;-72
2022/07/04 00:59:04;;;;;;;;;;;;;;;;;;350093;28;778;-72
2022/07/04 00:59:15;;;;;;;;;;;;;;;;;;350133;28;924;-72
2022/07/04 00:59:25;;;;;;;;;;;;;;;;;;350093;28;945;-72
2022/07/04 00:59:35;;;;;;;;;;;;;;;;;;350016;28;1016;-72
2022/07/04 00:59:46;;;;;;;;;;;;;;;;;;350068;28;1107;-72
2022/07/04 00:59:56;;;;;;;;;;;;;;;;;;350128;28;929;-72
2022/07/04 01:00:06;;;;;;;;;;;;;;;;;;350148;28;948;-72
2022/07/04 01:00:18;;;;;;;;;;;;;;;;;;350139;28;904;-72
2022/07/04 01:00:28;;;;;;;;;;;;;;;;;;350066;28;1039;-72
2022/07/04 01:00:39;;;;;;;;;;;;;;;;;;350058;28;980;-72
2022/07/04 01:00:49;;;;;;;;;;;;;;;;;;350118;28;833;-72
2022/07/04 01:00:59;;;;;;;;;;;;;;;;;;350139;28;909;-72
2022/07/04 01:01:09;;;;;;;;;;;;;;;;;;350132;28;829;-72
2022/07/04 01:01:20;;;;;;;;;;;;;;;;;;350126;28;925;-71
2022/07/04 01:01:30;;;;;;;;;;;;;;;;;;349922;28;1204;-72
2022/07/04 01:01:42;;;;;;;;;;;;;;;;;;350105;28;1092;-72
2022/07/04 01:01:52;;;;;;;;;;;;;;;;;;350077;28;1027;-72
2022/07/04 01:02:02;;;;;;;;;;;;;;;;;;350042;28;1146;-72
2022/07/04 01:02:12;;;;;;;;;;;;;;;;;;350124;28;905;-72
2022/07/04 01:02:23;;;;;;;;;;;;;;;;;;350116;28;841;-72
2022/07/04 01:02:33;;;;;;;;;;;;;;;;;;350092;28;897;-72
2022/07/04 01:02:43;;;;;;;;;;;;;;;;;;349939;28;1010;-72
2022/07/04 01:02:53;;;;;;;;;;;;;;;;;;350123;28;917;-72
2022/07/04 01:03:03;;;;;;;;;;;;;;;;;;350039;28;1200;-72
2022/07/04 01:03:14;;;;;;;;;;;;;;;;;;350097;28;960;-72
2022/07/04 01:03:24;;;;;;;;;;;;;;;;;;350143;28;925;-72
2022/07/04 01:03:34;;;;;;;;;;;;;;;;;;350030;28;909;-72
2022/07/04 01:03:44;;;;;;;;;;;;;;;;;;350111;28;932;-72
2022/07/04 01:03:55;;;;;;;;;;;;;;;;;;350116;28;801;-72
2022/07/04 01:04:06;;;;;;;;;;;;;;;;;;350131;28;920;-72
2022/07/04 01:04:16;;;;;;;;;;;;;;;;;;350133;28;822;-72
2022/07/04 01:04:27;;;;;;;;;;;;;;;;;;350125;28;857;-72
2022/07/04 01:04:37;;;;;;;;;;;;;;;;;;350127;28;920;-72
2022/07/04 01:04:47;;;;;;;;;;;;;;;;;;350134;28;850;-72
2022/07/04 01:04:57;;;;;;;;;;;;;;;;;;350136;28;921;-72
2022/07/04 01:05:08;;;;;;;;;;;;;;;;;;350080;28;1450;-72
2022/07/04 01:05:19;;;;;;;;;;;;;;;;;;350075;28;769;-72
2022/07/04 01:05:29;;;;;;;;;;;;;;;;;;350145;28;932;-72
2022/07/04 01:05:40;;;;;;;;;;;;;;;;;;349994;28;1431;-72
2022/07/04 01:05:50;;;;;;;;;;;;;;;;;;350070;28;951;-72
2022/07/04 01:06:01;;;;;;;;;;;;;;;;;;350147;28;920;-72
2022/07/04 01:06:11;;;;;;;;;;;;;;;;;;350065;28;998;-72
2022/07/04 01:06:21;;;;;;;;;;;;;;;;;;350147;28;865;-72
2022/07/04 01:06:32;;;;;;;;;;;;;;;;;;350117;28;864;-72
2022/07/04 01:06:43;;;;;;;;;;;;;;;;;;350134;28;881;-72
2022/07/04 01:06:53;;;;;;;;;;;;;;;;;;350131;28;941;-71
2022/07/04 01:07:04;;;;;;;;;;;;;;;;;;350073;28;980;-72
2022/07/04 01:07:14;;;;;;;;;;;;;;;;;;350108;28;979;-72
2022/07/04 01:07:25;;;;;;;;;;;;;;;;;;350136;28;932;-72
2022/07/04 01:07:35;;;;;;;;;;;;;;;;;;350133;28;1026;-72
2022/07/04 01:07:46;;;;;;;;;;;;;;;;;;350026;28;949;-72
2022/07/04 01:07:56;;;;;;;;;;;;;;;;;;350065;28;916;-72
2022/07/04 01:08:07;;;;;;;;;;;;;;;;;;350116;28;979;-72
2022/07/04 01:08:17;;;;;;;;;;;;;;;;;;350142;28;794;-72
2022/07/04 01:08:27;;;;;;;;;;;;;;;;;;350107;28;932;-72
2022/07/04 01:08:39;;;;;;;;;;;;;;;;;;350107;28;913;-72
2022/07/04 01:08:49;;;;;;;;;;;;;;;;;;350098;28;929;-71
2022/07/04 01:09:00;;;;;;;;;;;;;;;;;;350153;28;889;-72
2022/07/04 01:09:10;;;;;;;;;;;;;;;;;;350082;28;1191;-72
2022/07/04 01:09:21;;;;;;;;;;;;;;;;;;350139;28;916;-72
2022/07/04 01:09:31;;;;;;;;;;;;;;;;;;350128;28;903;-72
2022/07/04 01:09:41;;;;;;;;;;;;;;;;;;350125;28;777;-72
2022/07/04 01:09:52;;;;;;;;;;;;;;;;;;349987;28;1018;-72
2022/07/04 01:10:03;;;;;;;;;;;;;;;;;;350179;28;766;-72
2022/07/04 01:10:13;;;;;;;;;;;;;;;;;;350109;28;916;-72
2022/07/04 01:10:23;;;;;;;;;;;;;;;;;;350149;28;923;-72
2022/07/04 01:10:33;;;;;;;;;;;;;;;;;;350085;28;974;-72
2022/07/04 01:10:44;;;;;;;;;;;;;;;;;;350161;28;770;-72
2022/07/04 01:10:54;;;;;;;;;;;;;;;;;;350101;28;970;-72
2022/07/04 01:11:04;;;;;;;;;;;;;;;;;;350162;28;908;-72
2022/07/04 01:11:15;;;;;;;;;;;;;;;;;;350021;28;888;-72
2022/07/04 01:11:25;;;;;;;;;;;;;;;;;;350212;28;778;-72
2022/07/04 01:11:35;;;;;;;;;;;;;;;;;;350146;28;849;-71
2022/07/04 01:11:48;;;;;;;;;;;;;;;;;;350149;28;920;-72
2022/07/04 01:11:58;;;;;;;;;;;;;;;;;;350062;28;887;-72
2022/07/04 01:12:08;;;;;;;;;;;;;;;;;;350128;28;864;-72
2022/07/04 01:12:26;;;;;;;;;;;;;;;;;;350126;28;754;-72
2022/07/04 01:12:37;;;;;;;;;;;;;;;;;;350122;28;1050;-72
2022/07/04 01:12:47;;;;;;;;;;;;;;;;;;350102;28;913;-72
2022/07/04 01:12:57;;;;;;;;;;;;;;;;;;349537;28;1402;-72
2022/07/04 01:13:07;;;;;;;;;;;;;;;;;;349319;28;1290;-72
2022/07/04 01:13:24;;;;;;;;;;;;;;;;;;350109;28;916;-72
2022/07/04 01:13:34;;;;;;;;;;;;;;;;;;350087;28;951;-72
2022/07/04 01:13:45;;;;;;;;;;;;;;;;;;350138;28;935;-72
2022/07/04 01:13:56;;;;;;;;;;;;;;;;;;350077;28;892;-72
2022/07/04 01:14:06;;;;;;;;;;;;;;;;;;350045;28;853;-72
2022/07/04 01:14:16;;;;;;;;;;;;;;;;;;350101;28;999;-72
2022/07/04 01:14:26;;;;;;;;;;;;;;;;;;350009;28;1909;-72
2022/07/04 01:14:37;;;;;;;;;;;;;;;;;;350100;28;857;-72
2022/07/04 01:14:47;;;;;;;;;;;;;;;;;;350112;28;904;-72
2022/07/04 01:14:58;;;;;;;;;;;;;;;;;;350030;28;936;-72
2022/07/04 01:15:08;;;;;;;;;;;;;;;;;;350152;28;924;-72